sensor_id;sensor_type;location;lat;lon;timestamp;P1;durP1;ratioP1;P2;durP2;ratioP2
51985;SDS011;38002;53.296;6.600;2022-08-20T00:03:39;10.15;;;3.20;;
51985;SDS011;38002;53.296;6.600;2022-08-20T00:08:41;9.95;;;4.05;;
51985;SDS011;38002;53.296;6.600;2022-08-20T00:13:48;4.88;;;3.55;;
51985;SDS011;38002;53.296;6.600;2022-08-20T00:18:50;10.00;;;4.45;;
51985;SDS011;38002;53.296;6.600;2022-08-20T00:23:52;4.50;;;3.37;;
51985;SDS011;38002;53.296;6.600;2022-08-20T00:28:54;6.22;;;3.58;;
51985;SDS011;38002;53.296;6.600;2022-08-20T00:33:54;8.07;;;4.00;;
51985;SDS011;38002;53.296;6.600;2022-08-20T00:38:55;6.93;;;4.07;;
51985;SDS011;38002;53.296;6.600;2022-08-20T00:49:05;9.15;;;3.33;;
51985;SDS011;38002;53.296;6.600;2022-08-20T00:54:15;10.68;;;4.07;;
51985;SDS011;38002;53.296;6.600;2022-08-20T00:59:29;8.45;;;4.40;;
51985;SDS011;38002;53.296;6.600;2022-08-20T01:04:32;8.07;;;4.65;;
51985;SDS011;38002;53.296;6.600;2022-08-20T01:09:34;3.42;;;2.97;;
51985;SDS011;38002;53.296;6.600;2022-08-20T01:14:36;8.93;;;3.80;;
51985;SDS011;38002;53.296;6.600;2022-08-20T01:19:41;12.35;;;5.28;;
51985;SDS011;38002;53.296;6.600;2022-08-20T01:24:45;13.15;;;4.55;;
51985;SDS011;38002;53.296;6.600;2022-08-20T01:29:49;8.88;;;4.28;;
51985;SDS011;38002;53.296;6.600;2022-08-20T01:34:50;11.15;;;4.20;;
51985;SDS011;38002;53.296;6.600;2022-08-20T01:39:51;7.03;;;3.67;;
51985;SDS011;38002;53.296;6.600;2022-08-20T01:44:52;10.80;;;4.10;;
51985;SDS011;38002;53.296;6.600;2022-08-20T01:49:53;6.80;;;4.40;;
51985;SDS011;38002;53.296;6.600;2022-08-20T01:54:57;10.50;;;4.70;;
51985;SDS011;38002;53.296;6.600;2022-08-20T01:59:58;9.70;;;5.00;;
51985;SDS011;38002;53.296;6.600;2022-08-20T02:04:58;9.23;;;4.67;;
51985;SDS011;38002;53.296;6.600;2022-08-20T02:09:59;5.63;;;4.03;;
51985;SDS011;38002;53.296;6.600;2022-08-20T02:15:00;6.33;;;3.67;;
51985;SDS011;38002;53.296;6.600;2022-08-20T02:20:03;5.33;;;3.60;;
51985;SDS011;38002;53.296;6.600;2022-08-20T02:25:08;8.23;;;4.75;;
51985;SDS011;38002;53.296;6.600;2022-08-20T02:30:13;4.30;;;3.90;;
51985;SDS011;38002;53.296;6.600;2022-08-20T02:35:18;8.50;;;4.20;;
51985;SDS011;38002;53.296;6.600;2022-08-20T02:40:20;5.50;;;3.20;;
51985;SDS011;38002;53.296;6.600;2022-08-20T02:45:22;8.85;;;3.38;;
51985;SDS011;38002;53.296;6.600;2022-08-20T02:50:23;8.83;;;3.70;;
51985;SDS011;38002;53.296;6.600;2022-08-20T02:55:24;6.45;;;2.70;;
51985;SDS011;38002;53.296;6.600;2022-08-20T03:00:26;12.57;;;2.50;;
51985;SDS011;38002;53.296;6.600;2022-08-20T03:05:29;13.50;;;2.50;;
51985;SDS011;38002;53.296;6.600;2022-08-20T03:10:31;9.40;;;2.03;;
51985;SDS011;38002;53.296;6.600;2022-08-20T03:15:33;12.52;;;2.53;;
51985;SDS011;38002;53.296;6.600;2022-08-20T03:20:33;11.20;;;1.77;;
51985;SDS011;38002;53.296;6.600;2022-08-20T03:25:34;9.33;;;1.73;;
51985;SDS011;38002;53.296;6.600;2022-08-20T03:30:35;8.52;;;1.70;;
51985;SDS011;38002;53.296;6.600;2022-08-20T03:35:36;4.53;;;1.80;;
51985;SDS011;38002;53.296;6.600;2022-08-20T03:40:37;5.17;;;2.03;;
51985;SDS011;38002;53.296;6.600;2022-08-20T03:45:38;9.53;;;2.03;;
51985;SDS011;38002;53.296;6.600;2022-08-20T03:50:42;7.97;;;1.90;;
51985;SDS011;38002;53.296;6.600;2022-08-20T03:55:45;8.00;;;1.67;;
51985;SDS011;38002;53.296;6.600;2022-08-20T04:00:47;6.32;;;1.65;;
51985;SDS011;38002;53.296;6.600;2022-08-20T04:05:49;3.92;;;1.33;;
51985;SDS011;38002;53.296;6.600;2022-08-20T04:10:50;7.73;;;2.23;;
51985;SDS011;38002;53.296;6.600;2022-08-20T04:15:51;5.20;;;1.20;;
51985;SDS011;38002;53.296;6.600;2022-08-20T04:20:54;4.55;;;1.60;;
51985;SDS011;38002;53.296;6.600;2022-08-20T04:25:55;5.37;;;1.80;;
51985;SDS011;38002;53.296;6.600;2022-08-20T04:30:57;4.40;;;1.65;;
51985;SDS011;38002;53.296;6.600;2022-08-20T04:35:59;5.15;;;2.05;;
51985;SDS011;38002;53.296;6.600;2022-08-20T04:41:01;7.45;;;1.95;;
51985;SDS011;38002;53.296;6.600;2022-08-20T04:46:03;5.17;;;1.50;;
51985;SDS011;38002;53.296;6.600;2022-08-20T04:51:07;8.93;;;1.92;;
51985;SDS011;38002;53.296;6.600;2022-08-20T04:56:08;8.67;;;1.63;;
51985;SDS011;38002;53.296;6.600;2022-08-20T05:01:09;10.70;;;1.80;;
51985;SDS011;38002;53.296;6.600;2022-08-20T05:06:10;2.97;;;1.25;;
51985;SDS011;38002;53.296;6.600;2022-08-20T05:11:11;3.10;;;1.50;;
51985;SDS011;38002;53.296;6.600;2022-08-20T05:16:13;5.53;;;1.90;;
51985;SDS011;38002;53.296;6.600;2022-08-20T05:21:15;6.85;;;1.73;;
51985;SDS011;38002;53.296;6.600;2022-08-20T05:26:15;6.10;;;1.50;;
51985;SDS011;38002;53.296;6.600;2022-08-20T05:31:18;5.18;;;1.73;;
51985;SDS011;38002;53.296;6.600;2022-08-20T05:36:19;2.27;;;1.73;;
51985;SDS011;38002;53.296;6.600;2022-08-20T05:41:21;10.13;;;1.88;;
51985;SDS011;38002;53.296;6.600;2022-08-20T05:46:21;6.97;;;1.93;;
51985;SDS011;38002;53.296;6.600;2022-08-20T05:51:22;7.73;;;1.90;;
51985;SDS011;38002;53.296;6.600;2022-08-20T05:56:22;4.37;;;1.90;;
51985;SDS011;38002;53.296;6.600;2022-08-20T06:01:23;5.93;;;1.93;;
51985;SDS011;38002;53.296;6.600;2022-08-20T06:06:23;6.43;;;2.47;;
51985;SDS011;38002;53.296;6.600;2022-08-20T06:11:23;6.47;;;2.33;;
51985;SDS011;38002;53.296;6.600;2022-08-20T06:16:24;8.97;;;2.40;;
51985;SDS011;38002;53.296;6.600;2022-08-20T06:21:25;6.30;;;2.47;;
51985;SDS011;38002;53.296;6.600;2022-08-20T06:26:25;10.75;;;2.83;;
51985;SDS011;38002;53.296;6.600;2022-08-20T06:31:26;3.60;;;1.53;;
51985;SDS011;38002;53.296;6.600;2022-08-20T06:36:27;5.68;;;1.77;;
51985;SDS011;38002;53.296;6.600;2022-08-20T06:41:27;5.93;;;2.15;;
51985;SDS011;38002;53.296;6.600;2022-08-20T06:46:28;6.40;;;2.23;;
51985;SDS011;38002;53.296;6.600;2022-08-20T06:51:28;5.67;;;2.17;;
51985;SDS011;38002;53.296;6.600;2022-08-20T06:56:29;4.75;;;1.73;;
51985;SDS011;38002;53.296;6.600;2022-08-20T07:01:30;6.13;;;1.58;;
51985;SDS011;38002;53.296;6.600;2022-08-20T07:06:31;5.77;;;0.90;;
51985;SDS011;38002;53.296;6.600;2022-08-20T07:11:32;3.50;;;0.90;;
51985;SDS011;38002;53.296;6.600;2022-08-20T07:21:34;6.93;;;1.00;;
51985;SDS011;38002;53.296;6.600;2022-08-20T07:26:35;4.87;;;1.03;;
51985;SDS011;38002;53.296;6.600;2022-08-20T07:31:36;6.53;;;1.40;;
51985;SDS011;38002;53.296;6.600;2022-08-20T07:36:57;5.50;;;1.10;;
51985;SDS011;38002;53.296;6.600;2022-08-20T07:41:59;2.53;;;0.75;;
51985;SDS011;38002;53.296;6.600;2022-08-20T07:47:02;5.50;;;0.90;;
51985;SDS011;38002;53.296;6.600;2022-08-20T07:52:04;4.80;;;1.17;;
51985;SDS011;38002;53.296;6.600;2022-08-20T07:57:05;2.60;;;0.90;;
51985;SDS011;38002;53.296;6.600;2022-08-20T08:02:06;2.63;;;0.80;;
51985;SDS011;38002;53.296;6.600;2022-08-20T08:07:06;8.07;;;1.50;;
51985;SDS011;38002;53.296;6.600;2022-08-20T08:12:07;2.33;;;0.73;;
51985;SDS011;38002;53.296;6.600;2022-08-20T08:17:08;3.90;;;0.80;;
51985;SDS011;38002;53.296;6.600;2022-08-20T08:22:09;4.78;;;0.85;;
51985;SDS011;38002;53.296;6.600;2022-08-20T08:27:12;8.43;;;2.15;;
51985;SDS011;38002;53.296;6.600;2022-08-20T08:32:15;5.05;;;1.10;;
51985;SDS011;38002;53.296;6.600;2022-08-20T08:37:15;1.30;;;0.90;;
51985;SDS011;38002;53.296;6.600;2022-08-20T08:43:16;5.27;;;1.07;;
51985;SDS011;38002;53.296;6.600;2022-08-20T08:47:54;3.08;;;0.73;;
51985;SDS011;38002;53.296;6.600;2022-08-20T08:52:56;6.88;;;0.90;;
51985;SDS011;38002;53.296;6.600;2022-08-20T08:58:00;6.63;;;1.10;;
51985;SDS011;38002;53.296;6.600;2022-08-20T09:03:04;1.60;;;0.60;;
51985;SDS011;38002;53.296;6.600;2022-08-20T09:08:08;1.85;;;0.70;;
51985;SDS011;38002;53.296;6.600;2022-08-20T09:13:12;3.85;;;0.70;;
51985;SDS011;38002;53.296;6.600;2022-08-20T09:18:12;4.23;;;1.07;;
51985;SDS011;38002;53.296;6.600;2022-08-20T09:23:12;2.43;;;0.70;;
51985;SDS011;38002;53.296;6.600;2022-08-20T09:28:13;8.27;;;1.27;;
51985;SDS011;38002;53.296;6.600;2022-08-20T09:33:14;7.97;;;0.90;;
51985;SDS011;38002;53.296;6.600;2022-08-20T09:38:15;6.13;;;1.10;;
51985;SDS011;38002;53.296;6.600;2022-08-20T09:43:15;5.67;;;1.13;;
51985;SDS011;38002;53.296;6.600;2022-08-20T09:48:16;7.73;;;1.70;;
51985;SDS011;38002;53.296;6.600;2022-08-20T09:53:16;3.87;;;1.53;;
51985;SDS011;38002;53.296;6.600;2022-08-20T10:03:31;4.95;;;1.05;;
51985;SDS011;38002;53.296;6.600;2022-08-20T10:08:31;4.47;;;1.03;;
51985;SDS011;38002;53.296;6.600;2022-08-20T10:13:32;7.07;;;1.00;;
51985;SDS011;38002;53.296;6.600;2022-08-20T10:18:33;4.93;;;1.00;;
51985;SDS011;38002;53.296;6.600;2022-08-20T10:23:34;5.00;;;1.10;;
51985;SDS011;38002;53.296;6.600;2022-08-20T10:28:34;7.13;;;1.23;;
51985;SDS011;38002;53.296;6.600;2022-08-20T10:33:36;5.20;;;1.55;;
51985;SDS011;38002;53.296;6.600;2022-08-20T10:38:37;6.68;;;1.20;;
51985;SDS011;38002;53.296;6.600;2022-08-20T10:43:38;4.15;;;1.42;;
51985;SDS011;38002;53.296;6.600;2022-08-20T10:48:39;6.10;;;2.37;;
51985;SDS011;38002;53.296;6.600;2022-08-20T10:53:39;2.50;;;1.17;;
51985;SDS011;38002;53.296;6.600;2022-08-20T10:58:40;2.73;;;1.10;;
51985;SDS011;38002;53.296;6.600;2022-08-20T11:03:40;7.63;;;1.40;;
51985;SDS011;38002;53.296;6.600;2022-08-20T11:08:40;5.00;;;1.40;;
51985;SDS011;38002;53.296;6.600;2022-08-20T11:13:41;3.40;;;1.57;;
51985;SDS011;38002;53.296;6.600;2022-08-20T11:18:41;7.37;;;1.40;;
51985;SDS011;38002;53.296;6.600;2022-08-20T11:23:42;4.03;;;1.10;;
51985;SDS011;38002;53.296;6.600;2022-08-20T11:28:42;3.57;;;0.90;;
51985;SDS011;38002;53.296;6.600;2022-08-20T11:33:42;4.37;;;1.10;;
51985;SDS011;38002;53.296;6.600;2022-08-20T11:38:43;6.47;;;1.20;;
51985;SDS011;38002;53.296;6.600;2022-08-20T11:43:43;4.40;;;1.30;;
51985;SDS011;38002;53.296;6.600;2022-08-20T11:48:44;2.07;;;0.90;;
51985;SDS011;38002;53.296;6.600;2022-08-20T11:53:45;4.47;;;1.85;;
51985;SDS011;38002;53.296;6.600;2022-08-20T11:58:45;5.37;;;1.27;;
51985;SDS011;38002;53.296;6.600;2022-08-20T12:03:46;3.97;;;1.35;;
51985;SDS011;38002;53.296;6.600;2022-08-20T12:08:46;6.60;;;1.30;;
51985;SDS011;38002;53.296;6.600;2022-08-20T12:13:47;4.93;;;1.57;;
51985;SDS011;38002;53.296;6.600;2022-08-20T12:18:47;4.87;;;1.47;;
51985;SDS011;38002;53.296;6.600;2022-08-20T12:23:48;5.10;;;1.17;;
51985;SDS011;38002;53.296;6.600;2022-08-20T12:28:48;4.90;;;1.13;;
51985;SDS011;38002;53.296;6.600;2022-08-20T12:33:49;1.93;;;0.90;;
51985;SDS011;38002;53.296;6.600;2022-08-20T12:38:49;2.60;;;1.20;;
51985;SDS011;38002;53.296;6.600;2022-08-20T12:43:50;3.70;;;1.15;;
51985;SDS011;38002;53.296;6.600;2022-08-20T12:48:51;8.33;;;2.17;;
51985;SDS011;38002;53.296;6.600;2022-08-20T12:53:52;5.00;;;1.20;;
51985;SDS011;38002;53.296;6.600;2022-08-20T12:58:52;3.47;;;1.20;;
51985;SDS011;38002;53.296;6.600;2022-08-20T13:03:53;4.77;;;1.30;;
51985;SDS011;38002;53.296;6.600;2022-08-20T13:08:53;5.33;;;1.73;;
51985;SDS011;38002;53.296;6.600;2022-08-20T13:13:54;5.57;;;1.50;;
51985;SDS011;38002;53.296;6.600;2022-08-20T13:18:54;6.40;;;1.53;;
51985;SDS011;38002;53.296;6.600;2022-08-20T13:23:54;6.30;;;1.70;;
51985;SDS011;38002;53.296;6.600;2022-08-20T13:28:55;5.77;;;1.40;;
51985;SDS011;38002;53.296;6.600;2022-08-20T13:33:55;4.90;;;1.60;;
51985;SDS011;38002;53.296;6.600;2022-08-20T13:38:56;5.30;;;1.60;;
51985;SDS011;38002;53.296;6.600;2022-08-20T13:43:56;4.03;;;1.60;;
51985;SDS011;38002;53.296;6.600;2022-08-20T13:48:57;9.33;;;2.00;;
51985;SDS011;38002;53.296;6.600;2022-08-20T13:53:57;4.27;;;1.50;;
51985;SDS011;38002;53.296;6.600;2022-08-20T13:58:57;5.67;;;2.23;;
51985;SDS011;38002;53.296;6.600;2022-08-20T14:03:58;4.63;;;1.50;;
51985;SDS011;38002;53.296;6.600;2022-08-20T14:08:58;4.63;;;1.70;;
51985;SDS011;38002;53.296;6.600;2022-08-20T14:13:59;4.13;;;1.60;;
51985;SDS011;38002;53.296;6.600;2022-08-20T14:18:59;6.03;;;1.48;;
51985;SDS011;38002;53.296;6.600;2022-08-20T14:24:00;3.40;;;1.43;;
51985;SDS011;38002;53.296;6.600;2022-08-20T14:29:01;5.10;;;1.55;;
51985;SDS011;38002;53.296;6.600;2022-08-20T14:34:02;5.72;;;1.30;;
51985;SDS011;38002;53.296;6.600;2022-08-20T14:39:03;3.60;;;1.30;;
51985;SDS011;38002;53.296;6.600;2022-08-20T14:44:03;5.40;;;1.67;;
51985;SDS011;38002;53.296;6.600;2022-08-20T14:49:04;6.57;;;1.90;;
51985;SDS011;38002;53.296;6.600;2022-08-20T14:54:04;4.23;;;1.50;;
51985;SDS011;38002;53.296;6.600;2022-08-20T14:59:04;3.53;;;1.10;;
51985;SDS011;38002;53.296;6.600;2022-08-20T15:04:05;5.70;;;1.70;;
51985;SDS011;38002;53.296;6.600;2022-08-20T15:09:05;3.97;;;1.53;;
51985;SDS011;38002;53.296;6.600;2022-08-20T15:14:06;3.43;;;1.17;;
51985;SDS011;38002;53.296;6.600;2022-08-20T15:19:07;3.08;;;0.98;;
51985;SDS011;38002;53.296;6.600;2022-08-20T15:24:07;4.50;;;1.50;;
51985;SDS011;38002;53.296;6.600;2022-08-20T15:29:08;4.53;;;1.63;;
51985;SDS011;38002;53.296;6.600;2022-08-20T15:34:08;3.83;;;1.20;;
51985;SDS011;38002;53.296;6.600;2022-08-20T15:39:09;6.40;;;1.17;;
51985;SDS011;38002;53.296;6.600;2022-08-20T15:44:09;4.53;;;1.40;;
51985;SDS011;38002;53.296;6.600;2022-08-20T15:49:10;3.83;;;1.10;;
51985;SDS011;38002;53.296;6.600;2022-08-20T15:54:19;3.53;;;1.30;;
51985;SDS011;38002;53.296;6.600;2022-08-20T16:10:20;6.13;;;1.58;;
51985;SDS011;38002;53.296;6.600;2022-08-20T16:15:23;5.72;;;1.30;;
51985;SDS011;38002;53.296;6.600;2022-08-20T16:31:09;9.77;;;1.77;;
51985;SDS011;38002;53.296;6.600;2022-08-20T16:36:27;5.18;;;1.70;;
51985;SDS011;38002;53.296;6.600;2022-08-20T16:41:38;6.53;;;2.30;;
51985;SDS011;38002;53.296;6.600;2022-08-20T16:46:49;8.50;;;1.65;;
51985;SDS011;38002;53.296;6.600;2022-08-20T16:51:54;5.13;;;1.85;;
51985;SDS011;38002;53.296;6.600;2022-08-20T16:56:59;8.80;;;1.92;;
51985;SDS011;38002;53.296;6.600;2022-08-20T17:07:06;4.95;;;1.45;;
51985;SDS011;38002;53.296;6.600;2022-08-20T17:12:20;7.30;;;1.70;;
51985;SDS011;38002;53.296;6.600;2022-08-20T17:17:27;5.20;;;1.73;;
51985;SDS011;38002;53.296;6.600;2022-08-20T17:22:30;4.32;;;1.65;;
51985;SDS011;38002;53.296;6.600;2022-08-20T17:27:40;4.55;;;1.33;;
51985;SDS011;38002;53.296;6.600;2022-08-20T17:33:17;5.30;;;1.73;;
51985;SDS011;38002;53.296;6.600;2022-08-20T17:38:23;4.65;;;1.45;;
51985;SDS011;38002;53.296;6.600;2022-08-20T17:43:37;6.80;;;1.85;;
51985;SDS011;38002;53.296;6.600;2022-08-20T17:48:40;5.60;;;1.80;;
51985;SDS011;38002;53.296;6.600;2022-08-20T17:53:45;5.93;;;1.60;;
51985;SDS011;38002;53.296;6.600;2022-08-20T17:58:56;4.57;;;1.38;;
51985;SDS011;38002;53.296;6.600;2022-08-20T18:04:03;6.15;;;1.40;;
51985;SDS011;38002;53.296;6.600;2022-08-20T18:26:18;5.07;;;1.40;;
51985;SDS011;38002;53.296;6.600;2022-08-20T18:32:17;3.83;;;1.50;;
51985;SDS011;38002;53.296;6.600;2022-08-20T18:36:55;6.38;;;2.15;;
51985;SDS011;38002;53.296;6.600;2022-08-20T18:47:04;5.07;;;1.95;;
51985;SDS011;38002;53.296;6.600;2022-08-20T18:52:22;5.05;;;1.67;;
51985;SDS011;38002;53.296;6.600;2022-08-20T18:57:26;5.30;;;1.55;;
51985;SDS011;38002;53.296;6.600;2022-08-20T19:02:33;5.03;;;1.60;;
51985;SDS011;38002;53.296;6.600;2022-08-20T19:07:36;8.23;;;1.73;;
51985;SDS011;38002;53.296;6.600;2022-08-20T19:18:14;2.78;;;1.30;;
51985;SDS011;38002;53.296;6.600;2022-08-20T19:23:27;5.97;;;1.85;;
51985;SDS011;38002;53.296;6.600;2022-08-20T19:28:33;4.75;;;1.65;;
51985;SDS011;38002;53.296;6.600;2022-08-20T19:33:40;6.60;;;1.58;;
51985;SDS011;38002;53.296;6.600;2022-08-20T19:38:49;2.53;;;1.48;;
51985;SDS011;38002;53.296;6.600;2022-08-20T19:43:51;5.57;;;1.48;;
51985;SDS011;38002;53.296;6.600;2022-08-20T19:49:04;6.43;;;1.35;;
51985;SDS011;38002;53.296;6.600;2022-08-20T19:54:17;8.77;;;1.55;;
51985;SDS011;38002;53.296;6.600;2022-08-20T19:59:20;2.08;;;1.08;;
51985;SDS011;38002;53.296;6.600;2022-08-20T20:04:21;7.72;;;1.70;;
51985;SDS011;38002;53.296;6.600;2022-08-20T20:09:26;4.67;;;1.20;;
51985;SDS011;38002;53.296;6.600;2022-08-20T20:14:33;3.38;;;1.20;;
51985;SDS011;38002;53.296;6.600;2022-08-20T20:19:49;6.40;;;2.72;;
51985;SDS011;38002;53.296;6.600;2022-08-20T20:25:06;4.68;;;1.50;;
51985;SDS011;38002;53.296;6.600;2022-08-20T20:30:28;7.13;;;2.10;;
51985;SDS011;38002;53.296;6.600;2022-08-20T20:35:32;7.45;;;1.88;;
51985;SDS011;38002;53.296;6.600;2022-08-20T20:40:42;5.93;;;2.05;;
51985;SDS011;38002;53.296;6.600;2022-08-20T20:45:55;4.93;;;1.98;;
51985;SDS011;38002;53.296;6.600;2022-08-20T20:50:58;5.70;;;2.03;;
51985;SDS011;38002;53.296;6.600;2022-08-20T20:55:59;6.47;;;2.15;;
51985;SDS011;38002;53.296;6.600;2022-08-20T21:01:00;5.57;;;1.83;;
51985;SDS011;38002;53.296;6.600;2022-08-20T21:06:00;6.57;;;1.90;;
51985;SDS011;38002;53.296;6.600;2022-08-20T21:11:01;2.93;;;2.10;;
51985;SDS011;38002;53.296;6.600;2022-08-20T21:16:01;7.43;;;1.90;;
51985;SDS011;38002;53.296;6.600;2022-08-20T21:21:03;7.50;;;2.63;;
51985;SDS011;38002;53.296;6.600;2022-08-20T21:26:04;6.90;;;2.55;;
51985;SDS011;38002;53.296;6.600;2022-08-20T21:31:06;6.85;;;2.97;;
51985;SDS011;38002;53.296;6.600;2022-08-20T21:36:06;8.50;;;2.70;;
51985;SDS011;38002;53.296;6.600;2022-08-20T21:41:07;5.67;;;2.67;;
51985;SDS011;38002;53.296;6.600;2022-08-20T21:46:08;6.00;;;2.53;;
51985;SDS011;38002;53.296;6.600;2022-08-20T21:51:10;8.48;;;2.40;;
51985;SDS011;38002;53.296;6.600;2022-08-20T21:56:10;6.37;;;2.63;;
51985;SDS011;38002;53.296;6.600;2022-08-20T22:01:11;8.47;;;2.77;;
51985;SDS011;38002;53.296;6.600;2022-08-20T22:06:13;7.78;;;2.55;;
51985;SDS011;38002;53.296;6.600;2022-08-20T22:11:14;8.20;;;2.10;;
51985;SDS011;38002;53.296;6.600;2022-08-20T22:16:16;10.95;;;2.47;;
51985;SDS011;38002;53.296;6.600;2022-08-20T22:21:20;7.63;;;2.63;;
51985;SDS011;38002;53.296;6.600;2022-08-20T22:26:25;4.90;;;2.28;;
51985;SDS011;38002;53.296;6.600;2022-08-20T22:31:27;9.50;;;2.20;;
51985;SDS011;38002;53.296;6.600;2022-08-20T22:36:30;6.53;;;2.88;;
51985;SDS011;38002;53.296;6.600;2022-08-20T22:41:32;3.42;;;3.13;;
51985;SDS011;38002;53.296;6.600;2022-08-20T22:46:34;4.67;;;2.13;;
51985;SDS011;38002;53.296;6.600;2022-08-20T22:51:39;4.40;;;2.53;;
51985;SDS011;38002;53.296;6.600;2022-08-20T22:56:41;5.90;;;2.15;;
51985;SDS011;38002;53.296;6.600;2022-08-20T23:01:41;3.57;;;2.17;;
51985;SDS011;38002;53.296;6.600;2022-08-20T23:06:42;9.03;;;2.80;;
51985;SDS011;38002;53.296;6.600;2022-08-20T23:11:43;6.03;;;2.83;;
51985;SDS011;38002;53.296;6.600;2022-08-20T23:16:44;4.68;;;2.63;;
51985;SDS011;38002;53.296;6.600;2022-08-20T23:21:46;3.97;;;2.00;;
51985;SDS011;38002;53.296;6.600;2022-08-20T23:26:48;5.80;;;3.15;;
51985;SDS011;38002;53.296;6.600;2022-08-20T23:31:49;4.03;;;2.97;;
51985;SDS011;38002;53.296;6.600;2022-08-20T23:36:49;9.43;;;3.37;;
51985;SDS011;38002;53.296;6.600;2022-08-20T23:46:53;4.32;;;3.03;;
51985;SDS011;38002;53.296;6.600;2022-08-20T23:51:58;4.78;;;3.95;;
51985;SDS011;38002;53.296;6.600;2022-08-20T23:56:59;7.07;;;3.80;;
